sensor_id;sensor_type;location;lat;lon;timestamp;temperature;humidity
1806;DHT22;901;48.142;11.516;2023-01-29T00:00:51;1.00;99.90
1806;DHT22;901;48.142;11.516;2023-01-29T00:03:20;0.90;99.90
1806;DHT22;901;48.142;11.516;2023-01-29T00:05:46;0.80;99.90
1806;DHT22;901;48.142;11.516;2023-01-29T00:08:13;0.80;99.90
1806;DHT22;901;48.142;11.516;2023-01-29T00:10:40;0.80;99.90
1806;DHT22;901;48.142;11.516;2023-01-29T00:13:07;0.70;99.90
1806;DHT22;901;48.142;11.516;2023-01-29T00:15:33;0.70;99.90
1806;DHT22;901;48.142;11.516;2023-01-29T00:18:00;0.70;99.90
1806;DHT22;901;48.142;11.516;2023-01-29T00:20:29;0.60;99.90
1806;DHT22;901;48.142;11.516;2023-01-29T00:22:56;0.60;99.90
1806;DHT22;901;48.142;11.516;2023-01-29T00:25:22;0.50;99.90
1806;DHT22;901;48.142;11.516;2023-01-29T00:27:49;0.50;99.90
1806;DHT22;901;48.142;11.516;2023-01-29T00:30:17;0.50;99.90
1806;DHT22;901;48.142;11.516;2023-01-29T00:32:45;0.60;99.90
1806;DHT22;901;48.142;11.516;2023-01-29T00:35:12;0.60;99.90
1806;DHT22;901;48.142;11.516;2023-01-29T00:37:40;0.60;99.90
1806;DHT22;901;48.142;11.516;2023-01-29T00:40:08;0.60;99.90
1806;DHT22;901;48.142;11.516;2023-01-29T00:42:35;0.60;99.90
1806;DHT22;901;48.142;11.516;2023-01-29T00:45:20;0.60;99.90
1806;DHT22;901;48.142;11.516;2023-01-29T00:47:47;0.60;99.90
1806;DHT22;901;48.142;11.516;2023-01-29T00:50:14;0.50;99.90
1806;DHT22;901;48.142;11.516;2023-01-29T00:52:42;0.50;99.90
1806;DHT22;901;48.142;11.516;2023-01-29T00:55:10;0.50;99.90
1806;DHT22;901;48.142;11.516;2023-01-29T00:57:37;0.50;99.90
1806;DHT22;901;48.142;11.516;2023-01-29T01:00:07;0.40;99.90
1806;DHT22;901;48.142;11.516;2023-01-29T01:02:35;0.40;99.90
1806;DHT22;901;48.142;11.516;2023-01-29T01:05:19;0.40;99.90
1806;DHT22;901;48.142;11.516;2023-01-29T01:07:50;0.50;99.90
1806;DHT22;901;48.142;11.516;2023-01-29T01:10:19;0.40;99.90
1806;DHT22;901;48.142;11.516;2023-01-29T01:12:45;0.50;99.90
1806;DHT22;901;48.142;11.516;2023-01-29T01:15:13;0.60;99.90
1806;DHT22;901;48.142;11.516;2023-01-29T01:17:39;0.50;99.90
1806;DHT22;901;48.142;11.516;2023-01-29T01:20:08;0.60;99.90
1806;DHT22;901;48.142;11.516;2023-01-29T01:22:35;0.50;99.90
1806;DHT22;901;48.142;11.516;2023-01-29T01:25:04;0.50;99.90
1806;DHT22;901;48.142;11.516;2023-01-29T01:27:31;0.50;99.90
1806;DHT22;901;48.142;11.516;2023-01-29T01:29:59;0.40;99.90
1806;DHT22;901;48.142;11.516;2023-01-29T01:32:26;0.40;99.90
1806;DHT22;901;48.142;11.516;2023-01-29T01:34:53;0.40;99.90
1806;DHT22;901;48.142;11.516;2023-01-29T01:37:20;0.40;99.90
1806;DHT22;901;48.142;11.516;2023-01-29T01:39:47;0.40;99.90
1806;DHT22;901;48.142;11.516;2023-01-29T01:42:16;0.40;99.90
1806;DHT22;901;48.142;11.516;2023-01-29T01:45:04;0.40;99.90
1806;DHT22;901;48.142;11.516;2023-01-29T01:47:37;0.40;99.90
1806;DHT22;901;48.142;11.516;2023-01-29T01:50:08;0.40;99.90
1806;DHT22;901;48.142;11.516;2023-01-29T01:52:40;0.30;99.90
1806;DHT22;901;48.142;11.516;2023-01-29T01:55:11;0.40;99.90
1806;DHT22;901;48.142;11.516;2023-01-29T01:57:41;0.40;99.90
1806;DHT22;901;48.142;11.516;2023-01-29T02:00:11;0.40;99.90
1806;DHT22;901;48.142;11.516;2023-01-29T02:02:41;0.40;99.90
1806;DHT22;901;48.142;11.516;2023-01-29T02:05:27;0.40;99.90
1806;DHT22;901;48.142;11.516;2023-01-29T02:08:13;0.40;99.90
1806;DHT22;901;48.142;11.516;2023-01-29T02:10:58;0.40;99.90
1806;DHT22;901;48.142;11.516;2023-01-29T02:13:26;0.40;99.90
1806;DHT22;901;48.142;11.516;2023-01-29T02:15:53;0.30;99.90
1806;DHT22;901;48.142;11.516;2023-01-29T02:18:21;0.50;99.90
1806;DHT22;901;48.142;11.516;2023-01-29T02:20:53;0.50;99.90
1806;DHT22;901;48.142;11.516;2023-01-29T02:26:44;0.70;99.90
1806;DHT22;901;48.142;11.516;2023-01-29T02:29:18;0.70;99.90
1806;DHT22;901;48.142;11.516;2023-01-29T02:31:56;0.60;99.90
1806;DHT22;901;48.142;11.516;2023-01-29T02:34:33;0.60;99.90
1806;DHT22;901;48.142;11.516;2023-01-29T02:37:25;0.70;99.90
1806;DHT22;901;48.142;11.516;2023-01-29T02:40:04;0.70;99.90
1806;DHT22;901;48.142;11.516;2023-01-29T02:42:36;0.70;99.90
1806;DHT22;901;48.142;11.516;2023-01-29T02:45:10;0.80;99.90
1806;DHT22;901;48.142;11.516;2023-01-29T02:47:41;0.70;99.90
1806;DHT22;901;48.142;11.516;2023-01-29T02:50:16;0.60;99.90
1806;DHT22;901;48.142;11.516;2023-01-29T02:52:54;0.80;99.90
1806;DHT22;901;48.142;11.516;2023-01-29T02:55:28;0.90;99.90
1806;DHT22;901;48.142;11.516;2023-01-29T02:58:01;0.90;99.90
1806;DHT22;901;48.142;11.516;2023-01-29T03:00:34;0.90;99.90
1806;DHT22;901;48.142;11.516;2023-01-29T03:03:05;1.00;99.90
1806;DHT22;901;48.142;11.516;2023-01-29T03:05:38;1.00;99.90
1806;DHT22;901;48.142;11.516;2023-01-29T03:08:11;0.90;99.90
1806;DHT22;901;48.142;11.516;2023-01-29T03:10:44;0.90;99.90
1806;DHT22;901;48.142;11.516;2023-01-29T03:13:18;0.90;99.90
1806;DHT22;901;48.142;11.516;2023-01-29T03:15:50;0.90;99.90
1806;DHT22;901;48.142;11.516;2023-01-29T03:18:27;0.90;99.90
1806;DHT22;901;48.142;11.516;2023-01-29T03:21:00;0.90;99.90
1806;DHT22;901;48.142;11.516;2023-01-29T03:23:30;0.90;99.90
1806;DHT22;901;48.142;11.516;2023-01-29T03:26:18;1.00;99.90
1806;DHT22;901;48.142;11.516;2023-01-29T03:29:04;1.00;99.90
1806;DHT22;901;48.142;11.516;2023-01-29T03:31:53;0.90;99.90
1806;DHT22;901;48.142;11.516;2023-01-29T03:34:33;0.90;99.90
1806;DHT22;901;48.142;11.516;2023-01-29T03:37:06;0.90;99.90
1806;DHT22;901;48.142;11.516;2023-01-29T03:39:34;0.70;99.90
1806;DHT22;901;48.142;11.516;2023-01-29T03:42:03;0.80;99.90
1806;DHT22;901;48.142;11.516;2023-01-29T03:44:41;0.80;99.90
1806;DHT22;901;48.142;11.516;2023-01-29T03:47:18;0.80;99.90
1806;DHT22;901;48.142;11.516;2023-01-29T03:49:55;0.80;99.90
1806;DHT22;901;48.142;11.516;2023-01-29T03:52:26;0.80;99.90
1806;DHT22;901;48.142;11.516;2023-01-29T03:54:58;0.80;99.90
1806;DHT22;901;48.142;11.516;2023-01-29T03:57:33;0.80;99.90
1806;DHT22;901;48.142;11.516;2023-01-29T04:00:05;0.80;99.90
1806;DHT22;901;48.142;11.516;2023-01-29T04:02:42;0.90;99.90
1806;DHT22;901;48.142;11.516;2023-01-29T04:05:16;1.00;99.90
1806;DHT22;901;48.142;11.516;2023-01-29T04:07:44;1.00;99.90
1806;DHT22;901;48.142;11.516;2023-01-29T04:10:14;1.10;99.90
1806;DHT22;901;48.142;11.516;2023-01-29T04:12:45;1.10;99.90
1806;DHT22;901;48.142;11.516;2023-01-29T04:15:14;1.20;99.90
1806;DHT22;901;48.142;11.516;2023-01-29T04:17:48;1.20;99.90
1806;DHT22;901;48.142;11.516;2023-01-29T04:20:16;1.20;99.90
1806;DHT22;901;48.142;11.516;2023-01-29T04:22:45;1.30;99.90
1806;DHT22;901;48.142;11.516;2023-01-29T04:25:15;1.30;99.90
1806;DHT22;901;48.142;11.516;2023-01-29T04:27:49;1.30;99.90
1806;DHT22;901;48.142;11.516;2023-01-29T04:30:27;1.40;99.90
1806;DHT22;901;48.142;11.516;2023-01-29T04:33:03;1.30;99.90
1806;DHT22;901;48.142;11.516;2023-01-29T04:35:36;1.30;99.90
1806;DHT22;901;48.142;11.516;2023-01-29T04:38:11;1.40;99.90
1806;DHT22;901;48.142;11.516;2023-01-29T04:40:50;1.40;99.90
1806;DHT22;901;48.142;11.516;2023-01-29T04:43:21;1.40;99.90
1806;DHT22;901;48.142;11.516;2023-01-29T04:46:01;1.50;99.90
1806;DHT22;901;48.142;11.516;2023-01-29T04:48:41;1.30;99.90
1806;DHT22;901;48.142;11.516;2023-01-29T04:51:17;1.30;99.90
1806;DHT22;901;48.142;11.516;2023-01-29T04:53:49;1.40;99.90
1806;DHT22;901;48.142;11.516;2023-01-29T04:56:22;1.30;99.90
1806;DHT22;901;48.142;11.516;2023-01-29T04:58:54;1.30;99.90
1806;DHT22;901;48.142;11.516;2023-01-29T05:01:26;1.20;99.90
1806;DHT22;901;48.142;11.516;2023-01-29T05:03:56;1.10;99.90
1806;DHT22;901;48.142;11.516;2023-01-29T05:06:25;1.10;99.90
1806;DHT22;901;48.142;11.516;2023-01-29T05:08:52;1.10;99.90
1806;DHT22;901;48.142;11.516;2023-01-29T05:11:20;1.10;99.90
1806;DHT22;901;48.142;11.516;2023-01-29T05:13:49;1.10;99.90
1806;DHT22;901;48.142;11.516;2023-01-29T05:16:20;1.20;99.90
1806;DHT22;901;48.142;11.516;2023-01-29T05:18:48;1.00;99.90
1806;DHT22;901;48.142;11.516;2023-01-29T05:21:16;1.10;99.90
1806;DHT22;901;48.142;11.516;2023-01-29T05:23:43;1.10;99.90
1806;DHT22;901;48.142;11.516;2023-01-29T05:26:18;1.00;99.90
1806;DHT22;901;48.142;11.516;2023-01-29T05:29:02;1.00;99.90
1806;DHT22;901;48.142;11.516;2023-01-29T05:31:29;1.00;99.90
1806;DHT22;901;48.142;11.516;2023-01-29T05:33:55;0.80;99.90
1806;DHT22;901;48.142;11.516;2023-01-29T05:36:24;0.80;99.90
1806;DHT22;901;48.142;11.516;2023-01-29T05:38:51;0.60;99.90
1806;DHT22;901;48.142;11.516;2023-01-29T05:41:18;0.70;99.90
1806;DHT22;901;48.142;11.516;2023-01-29T05:43:45;0.60;99.90
1806;DHT22;901;48.142;11.516;2023-01-29T05:46:12;0.60;99.90
1806;DHT22;901;48.142;11.516;2023-01-29T05:48:39;0.50;99.90
1806;DHT22;901;48.142;11.516;2023-01-29T05:51:05;0.40;99.90
1806;DHT22;901;48.142;11.516;2023-01-29T05:53:34;0.40;99.90
1806;DHT22;901;48.142;11.516;2023-01-29T05:56:01;0.30;99.90
1806;DHT22;901;48.142;11.516;2023-01-29T05:58:29;0.40;99.90
1806;DHT22;901;48.142;11.516;2023-01-29T06:00:56;0.40;99.90
1806;DHT22;901;48.142;11.516;2023-01-29T06:03:23;0.40;99.90
1806;DHT22;901;48.142;11.516;2023-01-29T06:05:50;0.40;99.90
1806;DHT22;901;48.142;11.516;2023-01-29T06:08:16;0.20;99.90
1806;DHT22;901;48.142;11.516;2023-01-29T06:10:44;0.30;99.90
1806;DHT22;901;48.142;11.516;2023-01-29T06:13:11;0.40;99.90
1806;DHT22;901;48.142;11.516;2023-01-29T06:15:38;0.40;99.90
1806;DHT22;901;48.142;11.516;2023-01-29T06:18:06;0.20;99.90
1806;DHT22;901;48.142;11.516;2023-01-29T06:20:33;0.20;99.90
1806;DHT22;901;48.142;11.516;2023-01-29T06:22:59;0.30;99.90
1806;DHT22;901;48.142;11.516;2023-01-29T06:25:26;0.30;99.90
1806;DHT22;901;48.142;11.516;2023-01-29T06:27:54;0.30;99.90
1806;DHT22;901;48.142;11.516;2023-01-29T06:30:21;0.20;99.90
1806;DHT22;901;48.142;11.516;2023-01-29T06:32:48;0.30;99.90
1806;DHT22;901;48.142;11.516;2023-01-29T06:35:15;0.30;99.90
1806;DHT22;901;48.142;11.516;2023-01-29T06:37:42;0.30;99.90
1806;DHT22;901;48.142;11.516;2023-01-29T06:40:09;0.30;99.90
1806;DHT22;901;48.142;11.516;2023-01-29T06:42:36;0.30;99.90
1806;DHT22;901;48.142;11.516;2023-01-29T06:45:05;0.40;99.90
1806;DHT22;901;48.142;11.516;2023-01-29T06:47:32;0.40;99.90
1806;DHT22;901;48.142;11.516;2023-01-29T06:49:59;0.40;99.90
1806;DHT22;901;48.142;11.516;2023-01-29T06:52:26;0.40;99.90
1806;DHT22;901;48.142;11.516;2023-01-29T06:54:54;0.50;99.90
1806;DHT22;901;48.142;11.516;2023-01-29T06:57:21;0.50;99.90
1806;DHT22;901;48.142;11.516;2023-01-29T06:59:48;0.60;99.90
1806;DHT22;901;48.142;11.516;2023-01-29T07:02:16;0.50;99.90
1806;DHT22;901;48.142;11.516;2023-01-29T07:04:43;0.50;99.90
1806;DHT22;901;48.142;11.516;2023-01-29T07:07:10;0.50;99.90
1806;DHT22;901;48.142;11.516;2023-01-29T07:09:38;0.50;99.90
1806;DHT22;901;48.142;11.516;2023-01-29T07:12:05;0.50;99.90
1806;DHT22;901;48.142;11.516;2023-01-29T07:14:32;0.40;99.90
1806;DHT22;901;48.142;11.516;2023-01-29T07:16:59;0.40;99.90
1806;DHT22;901;48.142;11.516;2023-01-29T07:19:27;0.40;99.90
1806;DHT22;901;48.142;11.516;2023-01-29T07:21:54;0.50;99.90
1806;DHT22;901;48.142;11.516;2023-01-29T07:24:21;0.60;99.90
1806;DHT22;901;48.142;11.516;2023-01-29T07:26:48;0.70;99.90
1806;DHT22;901;48.142;11.516;2023-01-29T07:29:15;0.80;99.90
1806;DHT22;901;48.142;11.516;2023-01-29T07:31:42;0.80;99.90
1806;DHT22;901;48.142;11.516;2023-01-29T07:34:09;0.90;99.90
1806;DHT22;901;48.142;11.516;2023-01-29T07:36:37;1.00;99.90
1806;DHT22;901;48.142;11.516;2023-01-29T07:39:04;1.00;99.90
1806;DHT22;901;48.142;11.516;2023-01-29T07:41:30;1.10;99.90
1806;DHT22;901;48.142;11.516;2023-01-29T07:43:57;1.20;99.90
1806;DHT22;901;48.142;11.516;2023-01-29T07:46:24;1.20;99.90
1806;DHT22;901;48.142;11.516;2023-01-29T07:48:51;1.20;99.90
1806;DHT22;901;48.142;11.516;2023-01-29T07:51:17;1.30;99.90
1806;DHT22;901;48.142;11.516;2023-01-29T07:53:47;1.40;99.90
1806;DHT22;901;48.142;11.516;2023-01-29T07:56:14;1.50;99.90
1806;DHT22;901;48.142;11.516;2023-01-29T07:58:40;1.50;99.90
1806;DHT22;901;48.142;11.516;2023-01-29T08:01:07;1.50;99.90
1806;DHT22;901;48.142;11.516;2023-01-29T08:03:34;1.50;99.90
1806;DHT22;901;48.142;11.516;2023-01-29T08:06:02;1.50;99.90
1806;DHT22;901;48.142;11.516;2023-01-29T08:08:28;1.60;99.90
1806;DHT22;901;48.142;11.516;2023-01-29T08:10:59;1.60;99.90
1806;DHT22;901;48.142;11.516;2023-01-29T08:13:26;1.70;99.90
1806;DHT22;901;48.142;11.516;2023-01-29T08:15:57;1.70;99.90
1806;DHT22;901;48.142;11.516;2023-01-29T08:18:24;1.80;99.90
1806;DHT22;901;48.142;11.516;2023-01-29T08:20:51;1.80;99.90
1806;DHT22;901;48.142;11.516;2023-01-29T08:23:18;1.80;99.90
1806;DHT22;901;48.142;11.516;2023-01-29T08:25:44;1.90;99.90
1806;DHT22;901;48.142;11.516;2023-01-29T08:28:12;2.00;99.90
1806;DHT22;901;48.142;11.516;2023-01-29T08:30:39;2.00;99.90
1806;DHT22;901;48.142;11.516;2023-01-29T08:33:06;2.00;99.90
1806;DHT22;901;48.142;11.516;2023-01-29T08:35:33;2.10;99.90
1806;DHT22;901;48.142;11.516;2023-01-29T08:38:02;2.10;99.90
1806;DHT22;901;48.142;11.516;2023-01-29T08:40:30;2.20;99.90
1806;DHT22;901;48.142;11.516;2023-01-29T08:42:58;2.30;99.90
1806;DHT22;901;48.142;11.516;2023-01-29T08:45:26;2.40;99.90
1806;DHT22;901;48.142;11.516;2023-01-29T08:47:53;2.40;99.90
1806;DHT22;901;48.142;11.516;2023-01-29T08:50:19;2.40;99.90
1806;DHT22;901;48.142;11.516;2023-01-29T08:52:46;2.40;99.90
1806;DHT22;901;48.142;11.516;2023-01-29T08:55:13;2.50;99.90
1806;DHT22;901;48.142;11.516;2023-01-29T08:57:40;2.60;99.90
1806;DHT22;901;48.142;11.516;2023-01-29T09:00:08;2.60;99.90
1806;DHT22;901;48.142;11.516;2023-01-29T09:02:36;2.60;99.90
1806;DHT22;901;48.142;11.516;2023-01-29T09:05:04;2.70;99.90
1806;DHT22;901;48.142;11.516;2023-01-29T09:07:31;2.70;99.90
1806;DHT22;901;48.142;11.516;2023-01-29T09:09:58;2.80;99.90
1806;DHT22;901;48.142;11.516;2023-01-29T09:12:24;2.90;99.90
1806;DHT22;901;48.142;11.516;2023-01-29T09:14:51;2.80;99.90
1806;DHT22;901;48.142;11.516;2023-01-29T09:17:18;2.60;99.90
1806;DHT22;901;48.142;11.516;2023-01-29T09:19:46;2.60;99.90
1806;DHT22;901;48.142;11.516;2023-01-29T09:22:13;2.60;99.90
1806;DHT22;901;48.142;11.516;2023-01-29T09:24:40;2.60;99.90
1806;DHT22;901;48.142;11.516;2023-01-29T09:27:06;2.50;99.90
1806;DHT22;901;48.142;11.516;2023-01-29T09:29:34;2.40;99.90
1806;DHT22;901;48.142;11.516;2023-01-29T09:32:01;2.40;99.90
1806;DHT22;901;48.142;11.516;2023-01-29T09:34:28;2.40;99.90
1806;DHT22;901;48.142;11.516;2023-01-29T09:36:56;2.30;99.90
1806;DHT22;901;48.142;11.516;2023-01-29T09:39:23;2.20;99.90
1806;DHT22;901;48.142;11.516;2023-01-29T09:41:55;2.20;99.90
1806;DHT22;901;48.142;11.516;2023-01-29T09:44:44;2.20;99.90
1806;DHT22;901;48.142;11.516;2023-01-29T09:47:14;2.10;99.90
1806;DHT22;901;48.142;11.516;2023-01-29T09:49:44;1.80;99.90
1806;DHT22;901;48.142;11.516;2023-01-29T09:52:18;1.70;99.90
1806;DHT22;901;48.142;11.516;2023-01-29T09:54:56;1.60;99.90
1806;DHT22;901;48.142;11.516;2023-01-29T09:57:32;1.60;99.90
1806;DHT22;901;48.142;11.516;2023-01-29T10:00:00;1.50;99.90
1806;DHT22;901;48.142;11.516;2023-01-29T10:02:54;1.50;99.90
1806;DHT22;901;48.142;11.516;2023-01-29T10:05:41;1.60;99.90
1806;DHT22;901;48.142;11.516;2023-01-29T10:08:25;1.70;99.90
1806;DHT22;901;48.142;11.516;2023-01-29T10:10:58;1.70;99.90
1806;DHT22;901;48.142;11.516;2023-01-29T10:13:35;1.70;99.90
1806;DHT22;901;48.142;11.516;2023-01-29T10:16:17;1.80;99.90
1806;DHT22;901;48.142;11.516;2023-01-29T10:21:55;1.80;99.90
1806;DHT22;901;48.142;11.516;2023-01-29T10:24:35;1.70;99.90
1806;DHT22;901;48.142;11.516;2023-01-29T10:27:10;1.90;99.90
1806;DHT22;901;48.142;11.516;2023-01-29T10:29:40;2.00;99.90
1806;DHT22;901;48.142;11.516;2023-01-29T10:32:13;2.10;99.90
1806;DHT22;901;48.142;11.516;2023-01-29T10:34:43;2.00;99.90
1806;DHT22;901;48.142;11.516;2023-01-29T10:37:15;2.00;99.90
1806;DHT22;901;48.142;11.516;2023-01-29T10:39:44;1.90;99.90
1806;DHT22;901;48.142;11.516;2023-01-29T10:42:22;1.90;99.90
1806;DHT22;901;48.142;11.516;2023-01-29T10:44:59;1.90;99.90
1806;DHT22;901;48.142;11.516;2023-01-29T10:47:44;2.10;99.90
1806;DHT22;901;48.142;11.516;2023-01-29T10:50:27;2.20;99.90
1806;DHT22;901;48.142;11.516;2023-01-29T10:53:13;2.10;99.90
1806;DHT22;901;48.142;11.516;2023-01-29T10:55:53;2.00;99.90
1806;DHT22;901;48.142;11.516;2023-01-29T10:58:29;2.00;99.90
1806;DHT22;901;48.142;11.516;2023-01-29T11:00:58;1.90;99.90
1806;DHT22;901;48.142;11.516;2023-01-29T11:03:27;1.80;99.90
1806;DHT22;901;48.142;11.516;2023-01-29T11:05:59;1.90;99.90
1806;DHT22;901;48.142;11.516;2023-01-29T11:08:32;2.00;99.90
1806;DHT22;901;48.142;11.516;2023-01-29T11:11:06;1.80;99.90
1806;DHT22;901;48.142;11.516;2023-01-29T11:13:39;1.80;99.90
1806;DHT22;901;48.142;11.516;2023-01-29T11:16:08;1.80;99.90
1806;DHT22;901;48.142;11.516;2023-01-29T11:18:50;2.20;99.90
1806;DHT22;901;48.142;11.516;2023-01-29T11:21:17;2.40;99.90
1806;DHT22;901;48.142;11.516;2023-01-29T11:23:44;2.40;99.90
1806;DHT22;901;48.142;11.516;2023-01-29T11:26:17;2.40;99.90
1806;DHT22;901;48.142;11.516;2023-01-29T11:28:47;2.40;99.90
1806;DHT22;901;48.142;11.516;2023-01-29T11:31:16;2.40;99.90
1806;DHT22;901;48.142;11.516;2023-01-29T11:33:43;2.40;99.90
1806;DHT22;901;48.142;11.516;2023-01-29T11:36:35;2.50;99.90
1806;DHT22;901;48.142;11.516;2023-01-29T11:39:16;2.50;99.90
1806;DHT22;901;48.142;11.516;2023-01-29T11:41:48;2.40;99.90
1806;DHT22;901;48.142;11.516;2023-01-29T11:44:27;2.40;99.90
1806;DHT22;901;48.142;11.516;2023-01-29T11:46:55;2.50;99.90
1806;DHT22;901;48.142;11.516;2023-01-29T11:49:30;2.60;99.90
1806;DHT22;901;48.142;11.516;2023-01-29T11:52:00;2.70;99.90
1806;DHT22;901;48.142;11.516;2023-01-29T11:54:30;2.80;99.90
1806;DHT22;901;48.142;11.516;2023-01-29T11:57:00;3.00;99.90
1806;DHT22;901;48.142;11.516;2023-01-29T11:59:40;3.20;99.90
1806;DHT22;901;48.142;11.516;2023-01-29T12:02:20;3.40;99.90
1806;DHT22;901;48.142;11.516;2023-01-29T12:04:48;3.60;99.90
1806;DHT22;901;48.142;11.516;2023-01-29T12:07:17;3.70;99.90
1806;DHT22;901;48.142;11.516;2023-01-29T12:09:52;3.80;99.90
1806;DHT22;901;48.142;11.516;2023-01-29T12:12:29;3.90;99.90
1806;DHT22;901;48.142;11.516;2023-01-29T12:15:14;3.90;99.90
1806;DHT22;901;48.142;11.516;2023-01-29T12:17:46;3.90;99.90
1806;DHT22;901;48.142;11.516;2023-01-29T12:20:21;4.00;99.90
1806;DHT22;901;48.142;11.516;2023-01-29T12:22:55;4.10;99.90
1806;DHT22;901;48.142;11.516;2023-01-29T12:25:34;4.20;99.90
1806;DHT22;901;48.142;11.516;2023-01-29T12:28:09;4.20;99.90
1806;DHT22;901;48.142;11.516;2023-01-29T12:30:46;4.10;99.90
1806;DHT22;901;48.142;11.516;2023-01-29T12:33:25;4.10;99.90
1806;DHT22;901;48.142;11.516;2023-01-29T12:36:00;4.10;99.90
1806;DHT22;901;48.142;11.516;2023-01-29T12:38:28;4.00;99.90
1806;DHT22;901;48.142;11.516;2023-01-29T12:40:58;4.00;99.90
1806;DHT22;901;48.142;11.516;2023-01-29T12:43:37;3.60;99.90
1806;DHT22;901;48.142;11.516;2023-01-29T12:46:19;3.50;99.90
1806;DHT22;901;48.142;11.516;2023-01-29T12:48:47;3.50;99.90
1806;DHT22;901;48.142;11.516;2023-01-29T12:51:18;3.50;99.90
1806;DHT22;901;48.142;11.516;2023-01-29T12:53:49;3.50;99.90
1806;DHT22;901;48.142;11.516;2023-01-29T12:56:26;3.50;99.90
1806;DHT22;901;48.142;11.516;2023-01-29T12:58:59;3.50;99.90
1806;DHT22;901;48.142;11.516;2023-01-29T13:01:30;3.50;99.90
1806;DHT22;901;48.142;11.516;2023-01-29T13:04:00;3.50;99.90
1806;DHT22;901;48.142;11.516;2023-01-29T13:06:32;3.50;99.90
1806;DHT22;901;48.142;11.516;2023-01-29T13:09:02;3.50;99.90
1806;DHT22;901;48.142;11.516;2023-01-29T13:11:36;3.50;99.90
1806;DHT22;901;48.142;11.516;2023-01-29T13:14:11;3.40;99.90
1806;DHT22;901;48.142;11.516;2023-01-29T13:16:42;3.50;99.90
1806;DHT22;901;48.142;11.516;2023-01-29T13:19:20;3.50;99.90
1806;DHT22;901;48.142;11.516;2023-01-29T13:21:50;3.50;99.90
1806;DHT22;901;48.142;11.516;2023-01-29T13:24:19;3.50;99.90
1806;DHT22;901;48.142;11.516;2023-01-29T13:26:47;3.50;99.90
1806;DHT22;901;48.142;11.516;2023-01-29T13:29:22;3.60;99.90
1806;DHT22;901;48.142;11.516;2023-01-29T13:31:50;3.60;99.90
1806;DHT22;901;48.142;11.516;2023-01-29T13:34:22;3.60;99.90
1806;DHT22;901;48.142;11.516;2023-01-29T13:36:51;3.60;99.90
1806;DHT22;901;48.142;11.516;2023-01-29T13:39:23;3.60;99.90
1806;DHT22;901;48.142;11.516;2023-01-29T13:41:51;3.50;99.90
1806;DHT22;901;48.142;11.516;2023-01-29T13:44:25;3.50;99.90
1806;DHT22;901;48.142;11.516;2023-01-29T13:46:56;3.30;99.90
1806;DHT22;901;48.142;11.516;2023-01-29T13:49:33;2.90;99.90
1806;DHT22;901;48.142;11.516;2023-01-29T13:52:16;2.80;99.90
1806;DHT22;901;48.142;11.516;2023-01-29T13:54:53;2.80;99.90
1806;DHT22;901;48.142;11.516;2023-01-29T13:57:52;2.70;99.90
1806;DHT22;901;48.142;11.516;2023-01-29T14:03:54;2.80;99.90
1806;DHT22;901;48.142;11.516;2023-01-29T14:12:42;3.00;99.90
1806;DHT22;901;48.142;11.516;2023-01-29T14:15:37;3.00;99.90
1806;DHT22;901;48.142;11.516;2023-01-29T14:18:22;3.00;99.90
1806;DHT22;901;48.142;11.516;2023-01-29T14:20:58;3.10;99.90
1806;DHT22;901;48.142;11.516;2023-01-29T14:23:39;3.10;99.90
1806;DHT22;901;48.142;11.516;2023-01-29T14:26:23;3.20;99.90
1806;DHT22;901;48.142;11.516;2023-01-29T14:28:58;2.90;99.90
1806;DHT22;901;48.142;11.516;2023-01-29T14:31:41;2.60;99.90
1806;DHT22;901;48.142;11.516;2023-01-29T14:34:16;2.40;99.90
1806;DHT22;901;48.142;11.516;2023-01-29T14:36:47;2.30;99.90
1806;DHT22;901;48.142;11.516;2023-01-29T14:39:22;2.30;99.90
1806;DHT22;901;48.142;11.516;2023-01-29T14:41:51;2.30;99.90
1806;DHT22;901;48.142;11.516;2023-01-29T14:44:46;2.30;99.90
1806;DHT22;901;48.142;11.516;2023-01-29T14:47:18;2.20;99.90
1806;DHT22;901;48.142;11.516;2023-01-29T14:49:49;2.10;99.90
1806;DHT22;901;48.142;11.516;2023-01-29T14:52:20;2.20;99.90
1806;DHT22;901;48.142;11.516;2023-01-29T14:54:49;2.20;99.90
1806;DHT22;901;48.142;11.516;2023-01-29T14:57:18;2.20;99.90
1806;DHT22;901;48.142;11.516;2023-01-29T14:59:49;2.20;99.90
1806;DHT22;901;48.142;11.516;2023-01-29T15:02:21;2.20;99.90
1806;DHT22;901;48.142;11.516;2023-01-29T15:04:53;2.10;99.90
1806;DHT22;901;48.142;11.516;2023-01-29T15:07:28;2.00;99.90
1806;DHT22;901;48.142;11.516;2023-01-29T15:10:03;1.80;99.90
1806;DHT22;901;48.142;11.516;2023-01-29T15:12:35;1.50;99.90
1806;DHT22;901;48.142;11.516;2023-01-29T15:15:14;1.30;99.90
1806;DHT22;901;48.142;11.516;2023-01-29T15:17:51;1.30;99.90
1806;DHT22;901;48.142;11.516;2023-01-29T15:20:29;1.20;99.90
1806;DHT22;901;48.142;11.516;2023-01-29T15:22:58;1.20;99.90
1806;DHT22;901;48.142;11.516;2023-01-29T15:25:26;1.00;99.90
1806;DHT22;901;48.142;11.516;2023-01-29T15:27:54;1.00;99.90
1806;DHT22;901;48.142;11.516;2023-01-29T15:30:27;0.90;99.90
1806;DHT22;901;48.142;11.516;2023-01-29T15:32:56;0.90;99.90
1806;DHT22;901;48.142;11.516;2023-01-29T15:35:28;0.90;99.90
1806;DHT22;901;48.142;11.516;2023-01-29T15:38:01;1.10;99.90
1806;DHT22;901;48.142;11.516;2023-01-29T15:40:28;1.10;99.90
1806;DHT22;901;48.142;11.516;2023-01-29T15:42:55;1.10;99.90
1806;DHT22;901;48.142;11.516;2023-01-29T15:45:25;1.10;99.90
1806;DHT22;901;48.142;11.516;2023-01-29T15:47:55;1.00;99.90
1806;DHT22;901;48.142;11.516;2023-01-29T15:50:24;1.00;99.90
1806;DHT22;901;48.142;11.516;2023-01-29T15:52:52;1.00;99.90
1806;DHT22;901;48.142;11.516;2023-01-29T15:55:22;1.00;99.90
1806;DHT22;901;48.142;11.516;2023-01-29T15:57:51;1.20;99.90
1806;DHT22;901;48.142;11.516;2023-01-29T16:00:21;1.20;99.90
1806;DHT22;901;48.142;11.516;2023-01-29T16:02:48;1.20;99.90
1806;DHT22;901;48.142;11.516;2023-01-29T16:05:17;1.30;99.90
1806;DHT22;901;48.142;11.516;2023-01-29T16:07:46;1.30;99.90
1806;DHT22;901;48.142;11.516;2023-01-29T16:10:16;1.20;99.90
1806;DHT22;901;48.142;11.516;2023-01-29T16:12:46;1.20;99.90
1806;DHT22;901;48.142;11.516;2023-01-29T16:15:31;1.20;99.90
1806;DHT22;901;48.142;11.516;2023-01-29T16:17:59;1.10;99.90
1806;DHT22;901;48.142;11.516;2023-01-29T16:20:31;1.00;99.90
1806;DHT22;901;48.142;11.516;2023-01-29T16:22:59;1.00;99.90
1806;DHT22;901;48.142;11.516;2023-01-29T16:25:28;1.00;99.90
1806;DHT22;901;48.142;11.516;2023-01-29T16:27:57;0.90;99.90
1806;DHT22;901;48.142;11.516;2023-01-29T16:30:25;0.80;99.90
1806;DHT22;901;48.142;11.516;2023-01-29T16:33:00;0.70;99.90
1806;DHT22;901;48.142;11.516;2023-01-29T16:35:27;0.50;99.90
1806;DHT22;901;48.142;11.516;2023-01-29T16:37:58;0.60;99.90
1806;DHT22;901;48.142;11.516;2023-01-29T16:40:29;0.70;99.90
1806;DHT22;901;48.142;11.516;2023-01-29T16:46:04;0.60;99.90
1806;DHT22;901;48.142;11.516;2023-01-29T16:48:32;0.60;99.90
1806;DHT22;901;48.142;11.516;2023-01-29T16:51:03;0.50;99.90
1806;DHT22;901;48.142;11.516;2023-01-29T16:53:31;0.60;99.90
1806;DHT22;901;48.142;11.516;2023-01-29T16:56:01;0.60;99.90
1806;DHT22;901;48.142;11.516;2023-01-29T16:58:30;0.70;99.90
1806;DHT22;901;48.142;11.516;2023-01-29T17:01:00;0.80;99.90
1806;DHT22;901;48.142;11.516;2023-01-29T17:03:30;0.80;99.90